Time;durP1;ratioP1;P1;durP2;ratioP2;P2;SDS_P1;SDS_P2;PMS_P1;PMS_P2;Temp;Humidity;BMP_temperature;BMP_pressure;BME280_temperature;BME280_humidity;BME280_pressure;Samples;Min_cycle;Max_cycle;Signal;HPM_P1;HPM_P2
2022/09/15 00:01:00;;;;;;;;;2.00;1.67;;;;;21.87;61.21;100422.06;5006501;28;45461;-81
2022/09/15 00:03:25;;;;;;;;;1.00;1.00;;;;;21.83;60.98;100425.00;5000044;28;45398;-80
2022/09/15 00:05:52;;;;;;;;;1.00;1.00;;;;;21.74;60.90;100421.88;5001048;28;45541;-81
2022/09/15 00:08:18;;;;;;;;;2.00;2.00;;;;;21.69;61.10;100423.94;5001451;28;45711;-80
2022/09/15 00:10:57;;;;;;;;;1.67;1.67;;;;;21.70;61.08;100432.84;4999492;28;45230;-82
2022/09/15 00:13:24;;;;;;;;;1.33;1.33;;;;;21.71;61.29;100432.78;5001354;28;45528;-81
2022/09/15 00:15:50;;;;;;;;;1.00;1.00;;;;;21.70;61.24;100432.84;5001031;28;45474;-81
2022/09/15 00:18:16;;;;;;;;;1.33;1.33;;;;;21.69;61.06;100431.13;5003009;28;45455;-81
2022/09/15 00:20:43;;;;;;;;;1.00;1.00;;;;;21.69;61.12;100429.31;5004858;28;45312;-80
2022/09/15 00:23:13;;;;;;;;;5.00;3.33;;;;;21.65;61.34;100427.75;5004211;28;45233;-81
2022/09/15 00:25:50;;;;;;;;;1.67;1.67;;;;;21.59;61.13;100430.75;5006010;28;45434;-80
2022/09/15 00:28:17;;;;;;;;;3.67;2.67;;;;;21.57;61.06;100422.81;5004891;28;47755;-81
2022/09/15 00:30:45;;;;;;;;;2.00;2.00;;;;;21.52;61.29;100429.38;5005855;28;45243;-81
2022/09/15 00:33:12;;;;;;;;;2.00;1.33;;;;;21.48;61.45;100433.16;5006965;28;45237;-81
2022/09/15 00:35:39;;;;;;;;;2.67;2.67;;;;;21.42;61.15;100430.81;5005028;28;45467;-78
2022/09/15 00:38:06;;;;;;;;;2.00;2.00;;;;;21.35;61.43;100425.75;5006556;28;46108;-80
2022/09/15 00:40:32;;;;;;;;;4.33;4.33;;;;;21.37;61.88;100433.72;5006910;28;45387;-77
2022/09/15 00:42:57;;;;;;;;;2.67;2.00;;;;;21.36;61.89;100440.03;5005919;28;45286;-81
2022/09/15 00:45:23;;;;;;;;;2.00;2.00;;;;;21.34;61.93;100433.88;5006471;28;45617;-81
2022/09/15 00:47:48;;;;;;;;;3.00;3.00;;;;;21.33;62.20;100448.19;5018420;28;46028;-80
2022/09/15 00:50:17;;;;;;;;;3.67;3.67;;;;;21.31;62.09;100437.56;5026331;28;45226;-81
2022/09/15 00:52:48;;;;;;;;;3.00;2.67;;;;;21.28;62.11;100435.06;5023096;28;45530;-81
2022/09/15 00:55:16;;;;;;;;;3.00;3.00;;;;;21.32;62.09;100436.63;5020325;28;45443;-81
2022/09/15 00:57:49;;;;;;;;;4.33;3.00;;;;;21.34;62.34;100447.25;5020067;28;45467;-81
2022/09/15 01:00:18;;;;;;;;;2.00;2.00;;;;;21.27;62.02;100437.81;5019030;28;45182;-81
2022/09/15 01:02:46;;;;;;;;;3.00;3.00;;;;;21.22;62.05;100447.91;5018923;28;45348;-81
2022/09/15 01:05:16;;;;;;;;;0.67;0.67;;;;;21.19;62.08;100465.00;5019222;28;45471;-81
2022/09/15 01:07:52;;;;;;;;;2.00;2.00;;;;;21.07;62.41;100457.63;5020100;28;45233;-81
2022/09/15 01:10:24;;;;;;;;;1.00;1.00;;;;;21.01;62.76;100461.47;5022093;28;45482;-81
2022/09/15 01:12:51;;;;;;;;;2.33;2.33;;;;;20.97;62.75;100464.38;5021097;28;45244;-81
2022/09/15 01:15:16;;;;;;;;;1.00;1.00;;;;;21.00;62.52;100470.44;5020298;28;45471;-81
2022/09/15 01:18:09;;;;;;;;;1.00;1.00;;;;;20.99;62.66;100473.22;5019887;28;46156;-81
2022/09/15 01:21:03;;;;;;;;;2.00;1.00;;;;;20.98;62.24;100477.66;5020112;28;45162;-80
2022/09/15 01:23:57;;;;;;;;;0.00;0.00;;;;;20.97;62.27;100473.28;5020443;28;45193;-81
2022/09/15 01:26:55;;;;;;;;;0.67;0.67;;;;;20.95;62.38;100467.13;5018835;28;45549;-81
2022/09/15 01:29:54;;;;;;;;;3.00;2.00;;;;;20.97;62.56;100464.38;4998394;28;46288;-81
2022/09/15 01:35:24;;;;;;;;;5.00;5.00;;;;;20.97;62.79;100470.59;5020053;28;45233;-81
2022/09/15 01:37:57;;;;;;;;;8.00;8.00;;;;;20.97;62.67;100475.09;5007878;28;45885;-81
2022/09/15 01:40:29;;;;;;;;;9.00;7.00;;;;;20.95;62.94;100475.16;4999336;28;47033;-81
2022/09/15 01:42:56;;;;;;;;;7.67;7.67;;;;;20.92;62.85;100478.84;5002241;28;46231;-81
2022/09/15 01:45:28;;;;;;;;;9.00;9.00;;;;;20.90;62.92;100478.09;5008648;28;45441;-81
2022/09/15 01:47:56;;;;;;;;;9.67;8.67;;;;;20.93;62.91;100491.31;5021704;28;45685;-81
2022/09/15 01:50:31;;;;;;;;;8.33;8.33;;;;;20.88;62.77;100485.31;5022994;28;45373;-81
2022/09/15 01:53:00;;;;;;;;;8.00;8.00;;;;;20.90;62.89;100488.78;5022956;28;45758;-81
2022/09/15 01:55:36;;;;;;;;;9.50;9.50;;;;;20.86;62.54;100495.22;5022823;28;45475;-81
2022/09/15 01:58:02;;;;;;;;;14.25;13.25;;;;;20.78;62.41;100497.44;5006086;28;45559;-81
2022/09/15 02:00:30;;;;;;;;;13.00;9.50;;;;;20.74;62.43;100489.63;5002713;28;45437;-82
2022/09/15 02:03:03;;;;;;;;;12.00;12.00;;;;;20.67;62.13;100489.06;5003070;28;45289;-81
2022/09/15 02:05:34;;;;;;;;;12.50;11.75;;;;;20.62;61.77;100488.44;5003165;28;45252;-81
2022/09/15 02:08:11;;;;;;;;;14.00;13.00;;;;;20.56;62.11;100484.25;5002816;28;45372;-81
2022/09/15 02:10:40;;;;;;;;;16.75;13.75;;;;;20.55;62.31;100490.53;5002949;28;45452;-81
2022/09/15 02:13:37;;;;;;;;;15.75;11.75;;;;;20.54;62.09;100493.31;5015538;28;45292;-81
2022/09/15 02:16:03;;;;;;;;;15.25;14.75;;;;;20.42;61.92;100492.94;5019748;28;45455;-80
2022/09/15 02:18:42;;;;;;;;;14.25;13.00;;;;;20.42;61.89;100500.06;5022877;28;45423;-81
2022/09/15 02:21:29;;;;;;;;;10.00;8.50;;;;;20.34;62.27;100489.78;5018002;28;46325;-81
2022/09/15 02:24:02;;;;;;;;;10.75;9.75;;;;;20.28;62.14;100487.38;5005706;28;45345;-81
2022/09/15 02:26:30;;;;;;;;;9.75;8.75;;;;;20.27;62.19;100491.00;5022768;28;45311;-81
2022/09/15 02:28:59;;;;;;;;;12.50;12.25;;;;;20.21;62.09;100496.63;5005192;28;45380;-82
2022/09/15 02:31:26;;;;;;;;;11.50;10.25;;;;;20.19;62.03;100498.50;5001430;28;47303;-82
2022/09/15 02:34:15;;;;;;;;;10.50;9.25;;;;;20.15;61.96;100488.91;5004168;28;45293;-81
2022/09/15 02:36:43;;;;;;;;;12.25;9.75;;;;;20.11;62.35;100484.66;5001835;28;45329;-81
2022/09/15 02:39:13;;;;;;;;;12.25;10.50;;;;;20.13;61.94;100488.09;5002193;28;45455;-81
2022/09/15 02:41:39;;;;;;;;;10.00;7.67;;;;;20.07;61.95;100491.94;5014113;28;46790;-81
2022/09/15 02:44:04;;;;;;;;;10.00;9.00;;;;;20.08;62.18;100500.84;5002488;28;45244;-81
2022/09/15 02:46:30;;;;;;;;;12.00;9.75;;;;;20.08;62.17;100492.81;5003206;28;45194;-81
2022/09/15 02:48:55;;;;;;;;;12.00;10.50;;;;;20.08;61.63;100493.69;5022555;28;45178;-81
2022/09/15 02:51:21;;;;;;;;;9.50;9.00;;;;;20.07;61.76;100493.72;5021475;28;46025;-81
2022/09/15 02:53:47;;;;;;;;;11.25;9.50;;;;;20.06;62.00;100492.88;5020085;28;45244;-81
2022/09/15 02:56:15;;;;;;;;;10.00;10.00;;;;;20.06;61.90;100495.56;5022061;28;45310;-83
2022/09/15 02:58:41;;;;;;;;;8.50;7.50;;;;;20.06;61.52;100500.88;5021998;28;45447;-82
2022/09/15 03:01:07;;;;;;;;;10.00;10.00;;;;;20.00;62.04;100496.72;5020489;28;46907;-81
2022/09/15 03:03:33;;;;;;;;;9.75;7.50;;;;;19.93;61.70;100497.91;5022021;28;45305;-82
2022/09/15 03:06:15;;;;;;;;;11.25;10.00;;;;;19.97;62.07;100506.69;5008190;28;45170;-81
2022/09/15 03:08:51;;;;;;;;;10.00;10.00;;;;;19.91;61.78;100507.81;5006733;28;45422;-81
2022/09/15 03:11:19;;;;;;;;;10.00;10.00;;;;;19.81;61.66;100493.16;5012486;28;45932;-81
2022/09/15 03:13:45;;;;;;;;;9.75;8.75;;;;;19.73;61.80;100495.31;5010488;28;45155;-81
2022/09/15 03:16:13;;;;;;;;;9.25;9.25;;;;;19.64;61.95;100493.88;5002675;28;45269;-81
2022/09/15 03:18:40;;;;;;;;;8.67;8.67;;;;;19.60;62.19;100497.63;5002685;28;45362;-81
2022/09/15 03:21:08;;;;;;;;;14.33;10.00;;;;;19.56;62.17;100504.03;5001906;28;46965;-80
2022/09/15 03:23:34;;;;;;;;;10.25;9.25;;;;;19.49;62.05;100490.13;5003049;28;45282;-81
2022/09/15 03:26:01;;;;;;;;;9.25;9.25;;;;;19.43;61.83;100485.03;5003888;28;45195;-81
2022/09/15 03:28:26;;;;;;;;;8.25;8.25;;;;;19.44;61.60;100500.13;5003008;28;45397;-81
2022/09/15 03:30:53;;;;;;;;;9.00;9.00;;;;;19.44;61.62;100501.94;5001261;28;47454;-81
2022/09/15 03:33:20;;;;;;;;;10.00;8.00;;;;;19.38;61.73;100492.41;5002812;28;45364;-81
2022/09/15 03:35:46;;;;;;;;;6.75;6.00;;;;;19.38;61.59;100503.94;5001839;28;45423;-81
2022/09/15 03:38:12;;;;;;;;;9.00;9.00;;;;;19.30;61.30;100498.06;5000808;28;45424;-81
2022/09/15 03:40:38;;;;;;;;;10.75;9.25;;;;;19.29;61.41;100515.00;5002369;28;46636;-80
2022/09/15 03:43:03;;;;;;;;;11.25;11.25;;;;;19.22;61.82;100507.31;5000601;28;45262;-81
2022/09/15 03:45:29;;;;;;;;;9.00;8.25;;;;;19.14;61.44;100502.34;5001000;28;45187;-82
2022/09/15 03:47:54;;;;;;;;;11.25;10.75;;;;;19.10;61.48;100496.25;5015246;28;45293;-82
2022/09/15 03:50:20;;;;;;;;;10.00;10.00;;;;;19.06;61.49;100496.44;5019989;28;46318;-81
2022/09/15 03:52:46;;;;;;;;;10.50;10.50;;;;;19.01;61.42;100517.16;5021142;28;45243;-81
2022/09/15 03:55:11;;;;;;;;;12.25;9.50;;;;;18.91;61.64;100501.50;5019477;28;45457;-81
2022/09/15 03:57:37;;;;;;;;;11.25;10.25;;;;;18.86;61.87;100505.31;5020686;28;45257;-81
2022/09/15 04:00:05;;;;;;;;;14.50;13.50;;;;;18.89;61.89;100514.03;5019542;28;47201;-80
2022/09/15 04:02:30;;;;;;;;;14.75;14.50;;;;;18.79;62.05;100507.38;5020889;28;45371;-81
2022/09/15 04:04:56;;;;;;;;;13.00;13.00;;;;;18.78;61.78;100518.09;5020839;28;45519;-81
2022/09/15 04:07:21;;;;;;;;;15.25;13.25;;;;;18.71;62.19;100522.75;5018651;28;45465;-81
2022/09/15 04:09:47;;;;;;;;;12.00;12.00;;;;;18.66;62.33;100522.13;4999526;28;46491;-81
2022/09/15 04:12:12;;;;;;;;;19.00;16.50;;;;;18.57;61.98;100507.34;4999507;28;45271;-81
2022/09/15 04:14:37;;;;;;;;;10.75;10.50;;;;;18.51;62.19;100520.91;5001287;28;45766;-81
2022/09/15 04:17:03;;;;;;;;;14.25;11.75;;;;;18.52;62.57;100522.66;5000938;28;45254;-81
2022/09/15 04:19:29;;;;;;;;;17.25;14.25;;;;;18.49;62.79;100530.78;5008236;28;46094;-81
2022/09/15 04:21:54;;;;;;;;;13.25;11.75;;;;;18.42;62.66;100526.63;5007202;28;45245;-81
2022/09/15 04:24:19;;;;;;;;;12.25;12.25;;;;;18.33;62.96;100511.84;4999637;28;45251;-81
2022/09/15 04:26:45;;;;;;;;;18.00;16.75;;;;;18.28;63.02;100522.72;5000699;28;45444;-81
2022/09/15 04:29:13;;;;;;;;;17.75;16.00;;;;;18.33;63.11;100529.66;5000668;28;45587;-81
2022/09/15 04:31:38;;;;;;;;;16.50;15.75;;;;;18.30;62.95;100539.50;5012621;28;45422;-80
2022/09/15 04:34:04;;;;;;;;;17.25;16.25;;;;;18.28;62.88;100535.16;5012681;28;45442;-81
2022/09/15 04:36:30;;;;;;;;;15.75;15.50;;;;;18.33;63.09;100550.97;4999275;28;45551;-81
2022/09/15 04:38:57;;;;;;;;;18.25;15.25;;;;;18.30;63.39;100541.28;4998869;28;47082;-80
2022/09/15 04:41:23;;;;;;;;;15.25;14.50;;;;;18.27;62.93;100547.59;5012403;28;45380;-81
2022/09/15 04:43:49;;;;;;;;;18.75;16.25;;;;;18.26;62.96;100558.34;5018850;28;45300;-81
2022/09/15 04:46:15;;;;;;;;;16.75;13.25;;;;;18.23;62.78;100553.09;5007296;28;45226;-81
2022/09/15 04:48:41;;;;;;;;;18.25;17.50;;;;;18.16;62.92;100551.63;5019407;28;46977;-81
2022/09/15 04:51:10;;;;;;;;;20.50;19.00;;;;;18.12;63.20;100547.31;5021402;28;45336;-79
2022/09/15 04:53:36;;;;;;;;;15.75;14.50;;;;;18.13;63.24;100555.28;5021291;28;45434;-81
2022/09/15 04:56:10;;;;;;;;;18.00;16.50;;;;;18.05;62.98;100549.38;5020206;28;46414;-81
2022/09/15 04:58:57;;;;;;;;;13.00;11.50;;;;;18.04;63.32;100556.50;5019375;28;46936;-81
2022/09/15 05:01:29;;;;;;;;;21.25;20.25;;;;;17.98;63.37;100556.72;5019554;28;45197;-81
2022/09/15 05:03:54;;;;;;;;;16.75;15.25;;;;;17.93;63.52;100565.78;5020153;28;45362;-82
2022/09/15 05:06:25;;;;;;;;;17.25;15.50;;;;;17.92;63.28;100572.94;5019741;28;45470;-81
2022/09/15 05:08:53;;;;;;;;;17.25;16.50;;;;;17.95;63.73;100580.81;5018427;28;46930;-81
2022/09/15 05:11:20;;;;;;;;;16.50;16.50;;;;;17.85;63.69;100577.63;5018226;28;45856;-81
2022/09/15 05:13:46;;;;;;;;;17.75;17.25;;;;;17.87;63.68;100587.34;5020119;28;45386;-81
2022/09/15 05:16:15;;;;;;;;;16.25;16.25;;;;;17.83;63.56;100581.28;5018916;28;45379;-81
2022/09/15 05:18:45;;;;;;;;;17.00;16.75;;;;;17.88;63.91;100591.72;5018371;28;47685;-81
2022/09/15 05:21:13;;;;;;;;;20.25;19.00;;;;;17.88;64.23;100597.91;5019778;28;45433;-81
2022/09/15 05:23:39;;;;;;;;;19.75;17.00;;;;;17.84;63.69;100591.84;5018207;28;45252;-81
2022/09/15 05:26:07;;;;;;;;;18.25;17.25;;;;;17.88;64.16;100602.38;5018110;28;45605;-81
2022/09/15 05:28:35;;;;;;;;;26.75;25.00;;;;;17.83;64.00;100594.59;5016912;28;46996;-81
2022/09/15 05:31:06;;;;;;;;;21.50;21.00;;;;;17.77;64.01;100598.28;4999872;28;45424;-81
2022/09/15 05:33:33;;;;;;;;;20.50;19.25;;;;;17.76;63.81;100609.00;4999971;28;45214;-81
2022/09/15 05:36:00;;;;;;;;;22.25;19.00;;;;;17.67;64.48;100599.56;4999814;28;45458;-81
2022/09/15 05:38:28;;;;;;;;;24.75;23.00;;;;;17.62;64.11;100596.19;4999503;28;45439;-81
2022/09/15 05:40:54;;;;;;;;;28.50;25.50;;;;;17.63;64.23;100611.22;4999444;28;45336;-81
2022/09/15 05:43:20;;;;;;;;;25.50;23.50;;;;;17.54;64.54;100608.91;4999661;28;45254;-80
2022/09/15 05:45:55;;;;;;;;;24.00;22.75;;;;;17.56;64.83;100609.69;4999647;28;45225;-80
2022/09/15 05:48:20;;;;;;;;;22.75;21.00;;;;;17.58;64.74;100613.16;5016540;28;46471;-80
2022/09/15 05:50:50;;;;;;;;;32.00;27.75;;;;;17.60;64.94;100628.16;5019401;28;45237;-80
2022/09/15 05:53:16;;;;;;;;;23.50;20.25;;;;;17.57;64.88;100619.44;5019477;28;45445;-80
2022/09/15 05:55:41;;;;;;;;;25.75;22.00;;;;;17.58;64.76;100630.00;5018795;28;45459;-80
2022/09/15 05:58:07;;;;;;;;;24.00;24.00;;;;;17.57;64.85;100628.28;5001216;28;46486;-80
2022/09/15 06:00:33;;;;;;;;;28.00;26.00;;;;;17.55;64.69;100626.59;4998094;28;46006;-80
2022/09/15 06:02:59;;;;;;;;;27.00;24.00;;;;;17.54;64.96;100624.88;4998281;28;45226;-80
2022/09/15 06:05:24;;;;;;;;;25.75;22.50;;;;;17.51;65.07;100623.19;4998167;28;45260;-80
2022/09/15 06:07:54;;;;;;;;;31.25;28.25;;;;;17.56;65.10;100633.63;4999186;28;46037;-81
2022/09/15 06:10:23;;;;;;;;;26.50;26.00;;;;;17.50;64.76;100629.41;4999193;28;45543;-80
2022/09/15 06:12:50;;;;;;;;;21.75;19.00;;;;;17.55;64.79;100645.22;4998007;28;45265;-80
2022/09/15 06:15:15;;;;;;;;;27.50;25.25;;;;;17.46;65.10;100633.09;4999373;28;45406;-80
2022/09/15 06:17:40;;;;;;;;;24.00;22.75;;;;;17.55;65.07;100648.75;4998912;28;45380;-80
2022/09/15 06:20:06;;;;;;;;;25.75;23.00;;;;;17.51;65.21;100641.81;4999578;28;45361;-80
2022/09/15 06:22:32;;;;;;;;;29.75;26.25;;;;;17.51;65.38;100648.91;4999383;28;45329;-81
2022/09/15 06:24:58;;;;;;;;;25.25;23.00;;;;;17.55;65.08;100654.06;4998904;28;45205;-80
2022/09/15 06:27:24;;;;;;;;;25.00;24.00;;;;;17.52;64.78;100646.19;4999829;28;47704;-80
2022/09/15 06:29:50;;;;;;;;;28.25;25.75;;;;;17.62;64.96;100668.06;5002450;28;45918;-81
2022/09/15 06:32:15;;;;;;;;;28.25;25.25;;;;;17.63;65.01;100661.81;5002527;28;45430;-81
2022/09/15 06:34:41;;;;;;;;;29.25;27.75;;;;;17.63;65.17;100668.00;5002521;28;45423;-80
2022/09/15 06:37:07;;;;;;;;;15.50;10.00;;;;;17.63;64.76;100656.47;5002228;28;45379;-81
2022/09/15 06:39:32;;;;;;;;;26.00;23.75;;;;;17.69;65.07;100677.56;5001898;28;45332;-81
2022/09/15 06:41:58;;;;;;;;;28.25;24.00;;;;;17.69;65.03;100664.25;5002117;28;45241;-81
2022/09/15 06:44:23;;;;;;;;;27.25;24.00;;;;;17.76;65.15;100673.78;5002478;28;45269;-80
2022/09/15 06:46:49;;;;;;;;;31.75;26.25;;;;;17.77;64.85;100675.50;5006596;28;45356;-80
2022/09/15 06:49:15;;;;;;;;;31.75;27.00;;;;;17.79;64.99;100687.00;5020843;28;45220;-80
2022/09/15 06:51:40;;;;;;;;;28.75;25.50;;;;;17.77;64.93;100669.31;5022117;28;45303;-80
2022/09/15 06:54:06;;;;;;;;;27.50;25.75;;;;;17.79;64.64;100683.47;5021825;28;45360;-80
2022/09/15 06:56:32;;;;;;;;;27.00;23.25;;;;;17.82;64.84;100692.22;5019842;28;46662;-80
2022/09/15 06:58:58;;;;;;;;;31.25;28.25;;;;;17.85;64.15;100689.47;5020124;28;45265;-80
2022/09/15 07:01:30;;;;;;;;;29.50;26.00;;;;;17.85;64.44;100694.81;5020166;28;45514;-80
2022/09/15 07:03:57;;;;;;;;;27.75;23.75;;;;;17.82;64.78;100692.22;5008217;28;45276;-80
2022/09/15 07:06:23;;;;;;;;;28.75;26.25;;;;;17.83;64.59;100691.31;5001519;28;47370;-80
2022/09/15 07:08:49;;;;;;;;;22.50;22.25;;;;;17.87;64.31;100692.06;5001665;28;45545;-80
2022/09/15 07:11:16;;;;;;;;;27.75;25.50;;;;;17.87;64.33;100699.19;5000346;28;45426;-80
2022/09/15 07:13:41;;;;;;;;;29.50;25.75;;;;;17.89;64.49;100686.72;5001858;28;45351;-80
2022/09/15 07:16:08;;;;;;;;;33.50;29.00;;;;;17.90;64.16;100686.63;5001447;28;46052;-80
2022/09/15 07:18:35;;;;;;;;;32.75;27.00;;;;;17.97;64.31;100701.50;5000391;28;45186;-80
2022/09/15 07:21:04;;;;;;;;;25.00;23.50;;;;;18.00;64.12;100696.06;5000116;28;45463;-80
2022/09/15 07:23:30;;;;;;;;;27.00;25.50;;;;;18.01;64.20;100688.91;5000027;28;45463;-80
2022/09/15 07:26:06;;;;;;;;;28.50;26.75;;;;;18.10;63.85;100712.59;4999918;28;48452;-80
2022/09/15 07:28:31;;;;;;;;;32.00;30.25;;;;;18.11;63.67;100705.47;5000038;28;45408;-80
2022/09/15 07:30:57;;;;;;;;;30.00;25.75;;;;;18.22;63.87;100708.59;5000029;28;45479;-80
2022/09/15 07:33:22;;;;;;;;;27.75;24.00;;;;;18.30;63.95;100712.72;4999953;28;45498;-80
2022/09/15 07:35:48;;;;;;;;;30.00;27.25;;;;;18.36;63.64;100721.44;5001441;28;45217;-80
2022/09/15 07:38:13;;;;;;;;;26.00;22.00;;;;;18.42;63.15;100715.91;5000597;28;45368;-81
2022/09/15 07:40:38;;;;;;;;;27.00;24.50;;;;;18.36;63.16;100703.63;5001253;28;45411;-80
2022/09/15 07:43:05;;;;;;;;;25.00;25.00;;;;;18.43;62.79;100710.50;5001391;28;45499;-80
2022/09/15 07:45:31;;;;;;;;;22.75;22.50;;;;;18.53;62.95;100721.69;5001150;28;45524;-80
2022/09/15 07:47:57;;;;;;;;;24.00;22.25;;;;;18.58;62.57;100721.50;5013820;28;45329;-80
2022/09/15 07:50:22;;;;;;;;;26.25;22.75;;;;;18.64;62.31;100722.16;5019748;28;45301;-80
2022/09/15 07:52:48;;;;;;;;;25.75;23.00;;;;;18.73;62.31;100720.94;5020985;28;45444;-80
2022/09/15 07:55:14;;;;;;;;;23.50;22.00;;;;;18.76;62.14;100715.50;5018694;28;47785;-80
2022/09/15 07:57:39;;;;;;;;;30.00;27.00;;;;;18.82;62.06;100717.06;5019150;28;45434;-80
2022/09/15 08:00:05;;;;;;;;;23.00;21.75;;;;;18.92;61.54;100730.03;5020854;28;45396;-80
2022/09/15 08:02:31;;;;;;;;;26.00;25.75;;;;;18.94;61.37;100720.16;5020613;28;45272;-80
2022/09/15 08:04:56;;;;;;;;;25.75;22.75;;;;;19.03;61.55;100726.94;5020495;28;45390;-80
2022/09/15 08:07:22;;;;;;;;;29.50;27.50;;;;;19.12;61.08;100731.03;5020757;28;45343;-80
2022/09/15 08:09:48;;;;;;;;;24.00;23.00;;;;;19.18;60.73;100725.47;5020522;28;45331;-80
2022/09/15 08:12:13;;;;;;;;;25.75;23.75;;;;;19.29;60.63;100730.38;5020475;28;45186;-80
2022/09/15 08:14:39;;;;;;;;;23.25;21.75;;;;;19.40;60.44;100730.78;5020553;28;45815;-80
2022/09/15 08:17:04;;;;;;;;;29.75;22.25;;;;;19.53;60.53;100732.03;5020259;28;45304;-80
2022/09/15 08:19:32;;;;;;;;;23.75;23.75;;;;;19.69;59.88;100739.44;5019478;28;45245;-80
2022/09/15 08:21:58;;;;;;;;;26.50;23.75;;;;;19.82;59.18;100741.53;5020244;28;45285;-80
2022/09/15 08:24:23;;;;;;;;;23.00;21.50;;;;;19.99;59.11;100747.97;5019929;28;45478;-80
2022/09/15 08:26:49;;;;;;;;;22.75;20.75;;;;;20.17;58.32;100765.03;5018932;28;45475;-81
2022/09/15 08:29:16;;;;;;;;;26.75;23.00;;;;;20.30;58.10;100762.69;5019370;28;45408;-80
2022/09/15 08:31:43;;;;;;;;;23.50;22.75;;;;;20.47;58.00;100760.13;5019874;28;45534;-80
2022/09/15 08:34:11;;;;;;;;;23.25;20.75;;;;;20.62;57.66;100763.97;5020380;28;45665;-80
2022/09/15 08:36:36;;;;;;;;;25.00;21.00;;;;;20.80;56.99;100778.31;5018733;28;45325;-80
2022/09/15 08:39:02;;;;;;;;;22.75;22.00;;;;;20.91;56.35;100782.22;5018921;28;45248;-80
2022/09/15 08:41:34;;;;;;;;;19.50;19.00;;;;;21.04;55.90;100773.66;5019882;28;45478;-81
2022/09/15 08:44:15;;;;;;;;;16.50;15.00;;;;;21.21;55.21;100776.38;5020147;28;46292;-81
2022/09/15 08:46:47;;;;;;;;;17.00;16.00;;;;;21.31;54.84;100782.19;5019709;28;45492;-81
2022/09/15 08:49:26;;;;;;;;;18.25;16.50;;;;;21.45;54.33;100785.09;5019474;28;45211;-81
2022/09/15 08:51:52;;;;;;;;;15.75;15.00;;;;;21.56;53.82;100790.78;5017531;28;45662;-81
2022/09/15 08:54:27;;;;;;;;;17.50;16.00;;;;;21.66;53.45;100788.53;5019304;28;45510;-81
2022/09/15 08:56:54;;;;;;;;;14.00;13.75;;;;;21.75;53.44;100785.38;5018587;28;45630;-80
2022/09/15 08:59:20;;;;;;;;;15.25;15.25;;;;;21.90;53.02;100785.59;5018406;28;45315;-80
2022/09/15 09:02:16;;;;;;;;;12.25;11.25;;;;;22.07;52.52;100787.41;5018653;28;45258;-80
2022/09/15 09:04:59;;;;;;;;;9.00;8.67;;;;;22.24;51.63;100787.47;5018352;28;46945;-80
2022/09/15 09:07:55;;;;;;;;;14.00;10.33;;;;;22.42;51.57;100783.78;5018343;28;45285;-81
2022/09/15 09:10:48;;;;;;;;;8.33;7.00;;;;;22.54;50.87;100786.78;5017935;28;45505;-81
2022/09/15 09:13:38;;;;;;;;;11.50;10.75;;;;;22.68;50.94;100785.09;5019686;28;45235;-80
2022/09/15 09:16:23;;;;;;;;;10.00;9.75;;;;;22.77;50.44;100786.41;5019273;28;46372;-81
2022/09/15 09:19:15;;;;;;;;;8.75;7.00;;;;;22.83;50.38;100786.09;5019421;28;45380;-81
2022/09/15 09:21:46;;;;;;;;;12.50;11.00;;;;;22.87;49.36;100790.34;5018091;28;45255;-80
2022/09/15 09:24:16;;;;;;;;;9.75;8.00;;;;;22.95;49.71;100789.06;5017343;28;45434;-81
2022/09/15 09:26:42;;;;;;;;;9.50;9.00;;;;;23.03;49.07;100785.03;5019167;28;45474;-80
2022/09/15 09:29:17;;;;;;;;;7.00;7.00;;;;;23.12;49.46;100786.34;5019322;28;45384;-81
2022/09/15 09:31:46;;;;;;;;;7.33;3.00;;;;;23.19;48.88;100790.41;5017881;28;45284;-81
2022/09/15 09:34:37;;;;;;;;;11.00;10.00;;;;;23.22;48.55;100784.88;5017883;28;45522;-81
2022/09/15 09:37:10;;;;;;;;;9.00;7.00;;;;;23.22;48.74;100784.88;5019281;28;46512;-81
2022/09/15 09:39:36;;;;;;;;;7.00;7.00;;;;;23.20;48.66;100788.59;5019264;28;45304;-81
2022/09/15 09:42:04;;;;;;;;;8.00;8.00;;;;;23.20;48.33;100786.81;5019492;28;45218;-80
2022/09/15 09:44:33;;;;;;;;;11.00;9.00;;;;;23.17;48.08;100797.69;5019445;28;45385;-81
2022/09/15 09:47:02;;;;;;;;;4.33;4.33;;;;;23.15;47.78;100791.56;5019051;28;45244;-81
2022/09/15 09:49:38;;;;;;;;;7.00;5.33;;;;;23.09;47.51;100784.72;5017991;28;45273;-81
2022/09/15 09:52:04;;;;;;;;;4.67;4.00;;;;;23.09;47.54;100794.56;5017970;28;45462;-81
2022/09/15 09:54:31;;;;;;;;;3.00;3.00;;;;;23.09;47.19;100795.47;5017155;28;45588;-78
2022/09/15 09:57:21;;;;;;;;;8.00;8.00;;;;;23.08;47.41;100793.69;5019221;28;45454;-81
2022/09/15 09:59:49;;;;;;;;;10.00;10.00;;;;;23.06;47.55;100803.66;5015737;28;45321;-81
2022/09/15 10:02:26;;;;;;;;;9.75;9.75;;;;;23.05;48.17;100803.75;5021210;28;45357;-80
2022/09/15 10:04:53;;;;;;;;;6.33;6.33;;;;;23.03;47.92;100803.81;5021381;28;45487;-81
2022/09/15 10:07:25;;;;;;;;;6.33;5.33;;;;;23.04;47.58;100804.69;5021158;28;47531;-81
2022/09/15 10:09:54;;;;;;;;;8.00;6.00;;;;;23.05;47.59;100803.75;5022486;28;45366;-80
2022/09/15 10:12:28;;;;;;;;;7.33;6.67;;;;;23.07;47.54;100804.56;5023126;28;45446;-80
2022/09/15 10:14:57;;;;;;;;;4.00;4.00;;;;;23.08;47.50;100801.75;5020999;28;45332;-80
2022/09/15 10:17:27;;;;;;;;;4.00;4.00;;;;;23.11;47.26;100792.66;5021857;28;45322;-81
2022/09/15 10:19:57;;;;;;;;;5.33;4.33;;;;;23.17;47.26;100794.16;5022663;28;45356;-80
2022/09/15 10:22:33;;;;;;;;;4.33;4.00;;;;;23.21;46.57;100784.97;5022464;28;45381;-81
2022/09/15 10:25:01;;;;;;;;;6.00;4.33;;;;;23.26;46.78;100789.13;5021791;28;45395;-81
2022/09/15 10:27:35;;;;;;;;;3.67;3.67;;;;;23.30;45.95;100784.44;5020210;28;47582;-81
2022/09/15 10:30:13;;;;;;;;;4.00;3.00;;;;;23.38;46.34;100782.19;5020260;28;45344;-81
2022/09/15 10:32:40;;;;;;;;;3.33;2.67;;;;;23.48;46.22;100785.25;5020462;28;45342;-80
2022/09/15 10:35:12;;;;;;;;;3.00;3.00;;;;;23.56;46.22;100788.34;5020645;28;45477;-80
2022/09/15 10:37:49;;;;;;;;;5.00;4.33;;;;;23.71;46.03;100789.28;5012722;28;45461;-81
2022/09/15 10:40:41;;;;;;;;;5.00;5.00;;;;;23.85;45.60;100780.47;5000638;28;45472;-81
2022/09/15 10:43:18;;;;;;;;;3.00;3.00;;;;;24.06;44.91;100787.25;5002000;28;45324;-81
2022/09/15 10:45:48;;;;;;;;;19.25;14.50;;;;;24.28;45.05;100785.97;5002292;28;45262;-81
2022/09/15 10:48:20;;;;;;;;;3.67;3.00;;;;;24.51;44.49;100780.09;5018250;28;46494;-81
2022/09/15 10:51:10;;;;;;;;;4.33;4.00;;;;;24.68;43.75;100781.75;5021839;28;45261;-81
2022/09/15 10:53:46;;;;;;;;;9.00;8.67;;;;;24.84;43.77;100785.19;5021660;28;45364;-82
2022/09/15 10:56:37;;;;;;;;;7.33;6.67;;;;;25.11;43.35;100795.19;5017259;28;45432;-81
2022/09/15 10:59:42;;;;;;;;;3.33;3.00;;;;;25.29;43.02;100791.34;5021372;28;46309;-81
2022/09/15 11:02:28;;;;;;;;;9.67;8.00;;;;;25.44;42.31;100784.09;5021375;28;45371;-81
2022/09/15 11:05:33;;;;;;;;;4.00;4.00;;;;;25.56;42.11;100787.81;5020851;28;45506;-81
2022/09/15 11:08:16;;;;;;;;;3.67;3.67;;;;;25.61;41.94;100777.59;5020069;28;45531;-82
2022/09/15 11:11:23;;;;;;;;;5.33;5.33;;;;;25.66;41.65;100782.66;5021308;28;45701;-81
2022/09/15 11:14:20;;;;;;;;;8.33;7.00;;;;;25.59;41.66;100775.97;5009922;28;45415;-81
2022/09/15 11:16:49;;;;;;;;;4.67;3.67;;;;;25.48;41.90;100780.25;5020862;28;46098;-81
2022/09/15 11:19:32;;;;;;;;;3.33;3.33;;;;;25.38;41.98;100778.25;5019802;28;45477;-82
2022/09/15 11:22:07;;;;;;;;;5.00;4.00;;;;;25.36;41.68;100764.00;5019401;28;47193;-80
2022/09/15 11:24:46;;;;;;;;;4.33;4.00;;;;;25.35;42.09;100762.28;5021200;28;45458;-82
2022/09/15 11:27:30;;;;;;;;;4.67;3.67;;;;;25.41;42.11;100767.25;5003869;28;45186;-80
2022/09/15 11:30:20;;;;;;;;;2.33;2.33;;;;;25.44;41.95;100759.81;5001604;28;45291;-79
2022/09/15 11:33:04;;;;;;;;;2.33;1.67;;;;;25.60;41.86;100758.81;5011519;28;46894;-81
2022/09/15 11:35:53;;;;;;;;;5.00;4.00;;;;;25.80;41.24;100769.16;5019890;28;45442;-80